sensor_id;sensor_type;location;lat;lon;timestamp;pressure;altitude;pressure_sealevel;temperature;humidity
65659;BME280;60181;53.258;6.932;2022-07-23T00:02:49;102050.48;;;22.31;58.61
65659;BME280;60181;53.258;6.932;2022-07-23T00:07:17;102051.90;;;22.31;58.57
65659;BME280;60181;53.258;6.932;2022-07-23T00:11:45;102053.26;;;22.30;58.62
65659;BME280;60181;53.258;6.932;2022-07-23T00:16:13;102054.41;;;22.30;58.70
65659;BME280;60181;53.258;6.932;2022-07-23T00:20:41;102055.16;;;22.29;58.70
65659;BME280;60181;53.258;6.932;2022-07-23T00:25:09;102054.76;;;22.28;58.68
65659;BME280;60181;53.258;6.932;2022-07-23T00:29:37;102054.41;;;22.27;58.64
65659;BME280;60181;53.258;6.932;2022-07-23T00:34:05;102054.42;;;22.27;58.63
65659;BME280;60181;53.258;6.932;2022-07-23T00:38:33;102052.51;;;22.27;58.59
65659;BME280;60181;53.258;6.932;2022-07-23T00:43:01;102052.15;;;22.26;58.60
65659;BME280;60181;53.258;6.932;2022-07-23T00:47:29;102052.92;;;22.26;58.52
65659;BME280;60181;53.258;6.932;2022-07-23T00:51:57;102053.83;;;22.25;58.55
65659;BME280;60181;53.258;6.932;2022-07-23T00:56:25;102055.08;;;22.25;58.53
65659;BME280;60181;53.258;6.932;2022-07-23T01:00:53;102053.94;;;22.24;58.48
65659;BME280;60181;53.258;6.932;2022-07-23T01:05:21;102052.51;;;22.24;58.55
65659;BME280;60181;53.258;6.932;2022-07-23T01:09:49;102049.91;;;22.23;58.58
65659;BME280;60181;53.258;6.932;2022-07-23T01:14:18;102046.98;;;22.22;58.61
65659;BME280;60181;53.258;6.932;2022-07-23T01:18:45;102044.92;;;22.21;58.62
65659;BME280;60181;53.258;6.932;2022-07-23T01:23:13;102042.56;;;22.21;58.57
65659;BME280;60181;53.258;6.932;2022-07-23T01:27:41;102039.23;;;22.20;58.58
65659;BME280;60181;53.258;6.932;2022-07-23T01:32:09;102036.66;;;22.20;58.52
65659;BME280;60181;53.258;6.932;2022-07-23T01:36:37;102034.31;;;22.19;58.51
65659;BME280;60181;53.258;6.932;2022-07-23T01:41:05;102030.81;;;22.19;58.47
65659;BME280;60181;53.258;6.932;2022-07-23T01:45:33;102027.87;;;22.19;58.42
65659;BME280;60181;53.258;6.932;2022-07-23T01:50:01;102025.89;;;22.18;58.38
65659;BME280;60181;53.258;6.932;2022-07-23T01:54:29;102023.38;;;22.17;58.42
65659;BME280;60181;53.258;6.932;2022-07-23T01:58:57;102020.78;;;22.16;58.52
65659;BME280;60181;53.258;6.932;2022-07-23T02:03:25;102016.55;;;22.16;58.52
65659;BME280;60181;53.258;6.932;2022-07-23T02:07:53;102011.63;;;22.15;58.49
65659;BME280;60181;53.258;6.932;2022-07-23T02:12:21;102006.02;;;22.14;58.52
65659;BME280;60181;53.258;6.932;2022-07-23T02:16:49;102001.79;;;22.13;58.47
65659;BME280;60181;53.258;6.932;2022-07-23T02:21:17;101997.02;;;22.12;58.49
65659;BME280;60181;53.258;6.932;2022-07-23T02:25:45;101993.84;;;22.12;58.44
65659;BME280;60181;53.258;6.932;2022-07-23T02:30:13;101990.77;;;22.12;58.47
65659;BME280;60181;53.258;6.932;2022-07-23T02:34:41;101988.28;;;22.11;58.40
65659;BME280;60181;53.258;6.932;2022-07-23T02:39:09;101984.84;;;22.10;58.38
65659;BME280;60181;53.258;6.932;2022-07-23T02:43:37;101982.59;;;22.10;58.40
65659;BME280;60181;53.258;6.932;2022-07-23T02:48:05;101981.27;;;22.09;58.41
65659;BME280;60181;53.258;6.932;2022-07-23T02:52:33;101980.83;;;22.08;58.47
65659;BME280;60181;53.258;6.932;2022-07-23T02:57:01;101980.35;;;22.08;58.46
65659;BME280;60181;53.258;6.932;2022-07-23T03:01:29;101980.76;;;22.07;58.50
65659;BME280;60181;53.258;6.932;2022-07-23T03:05:56;101981.94;;;22.07;58.53
65659;BME280;60181;53.258;6.932;2022-07-23T03:10:25;101982.76;;;22.06;58.49
65659;BME280;60181;53.258;6.932;2022-07-23T03:14:53;101983.11;;;22.05;58.45
65659;BME280;60181;53.258;6.932;2022-07-23T03:19:20;101984.61;;;22.05;58.40
65659;BME280;60181;53.258;6.932;2022-07-23T03:23:48;101984.01;;;22.05;58.45
65659;BME280;60181;53.258;6.932;2022-07-23T03:28:17;101983.67;;;22.04;58.38
65659;BME280;60181;53.258;6.932;2022-07-23T03:32:44;101982.18;;;22.04;58.43
65659;BME280;60181;53.258;6.932;2022-07-23T03:37:12;101980.19;;;22.03;58.38
65659;BME280;60181;53.258;6.932;2022-07-23T03:41:40;101978.01;;;22.03;58.39
65659;BME280;60181;53.258;6.932;2022-07-23T03:46:09;101976.75;;;22.02;58.48
65659;BME280;60181;53.258;6.932;2022-07-23T03:50:36;101976.01;;;22.01;58.46
65659;BME280;60181;53.258;6.932;2022-07-23T03:55:05;101975.34;;;22.01;58.46
65659;BME280;60181;53.258;6.932;2022-07-23T03:59:32;101976.09;;;22.00;58.46
65659;BME280;60181;53.258;6.932;2022-07-23T04:04:01;101976.74;;;22.00;58.42
65659;BME280;60181;53.258;6.932;2022-07-23T04:08:28;101976.84;;;22.00;58.44
65659;BME280;60181;53.258;6.932;2022-07-23T04:12:56;101976.92;;;21.99;58.42
65659;BME280;60181;53.258;6.932;2022-07-23T04:17:24;101978.19;;;21.99;58.44
65659;BME280;60181;53.258;6.932;2022-07-23T04:21:52;101979.43;;;21.98;58.44
65659;BME280;60181;53.258;6.932;2022-07-23T04:26:20;101979.61;;;21.98;58.41
65659;BME280;60181;53.258;6.932;2022-07-23T04:30:48;101980.33;;;21.97;58.39
65659;BME280;60181;53.258;6.932;2022-07-23T04:35:16;101980.77;;;21.97;58.40
65659;BME280;60181;53.258;6.932;2022-07-23T04:39:44;101982.28;;;21.97;58.37
65659;BME280;60181;53.258;6.932;2022-07-23T04:44:12;101982.67;;;21.96;58.45
65659;BME280;60181;53.258;6.932;2022-07-23T04:48:40;101983.35;;;21.96;58.50
65659;BME280;60181;53.258;6.932;2022-07-23T04:53:08;101985.21;;;21.95;58.54
65659;BME280;60181;53.258;6.932;2022-07-23T04:57:36;101987.03;;;21.95;58.47
65659;BME280;60181;53.258;6.932;2022-07-23T05:02:04;101988.70;;;21.95;58.46
65659;BME280;60181;53.258;6.932;2022-07-23T05:06:32;101988.93;;;21.95;58.41
65659;BME280;60181;53.258;6.932;2022-07-23T05:11:00;101990.69;;;21.95;58.43
65659;BME280;60181;53.258;6.932;2022-07-23T05:15:28;101992.53;;;21.95;58.38
65659;BME280;60181;53.258;6.932;2022-07-23T05:19:56;101993.45;;;21.95;58.39
65659;BME280;60181;53.258;6.932;2022-07-23T05:24:24;101994.70;;;21.94;58.36
65659;BME280;60181;53.258;6.932;2022-07-23T05:28:52;101996.37;;;21.94;58.36
65659;BME280;60181;53.258;6.932;2022-07-23T05:33:20;101997.94;;;21.94;58.40
65659;BME280;60181;53.258;6.932;2022-07-23T05:37:48;102001.22;;;21.94;58.46
65659;BME280;60181;53.258;6.932;2022-07-23T05:42:16;102003.55;;;21.94;58.46
65659;BME280;60181;53.258;6.932;2022-07-23T05:46:44;102007.06;;;21.94;58.49
65659;BME280;60181;53.258;6.932;2022-07-23T05:51:12;102010.05;;;21.94;58.43
65659;BME280;60181;53.258;6.932;2022-07-23T05:55:40;102012.64;;;21.95;58.40
65659;BME280;60181;53.258;6.932;2022-07-23T06:00:09;102016.30;;;21.95;58.36
65659;BME280;60181;53.258;6.932;2022-07-23T06:04:36;102020.90;;;21.95;58.40
65659;BME280;60181;53.258;6.932;2022-07-23T06:09:04;102025.23;;;21.96;58.38
65659;BME280;60181;53.258;6.932;2022-07-23T06:13:32;102027.64;;;21.96;58.39
65659;BME280;60181;53.258;6.932;2022-07-23T06:18:00;102027.87;;;21.96;58.36
65659;BME280;60181;53.258;6.932;2022-07-23T06:22:28;102028.56;;;21.97;58.38
65659;BME280;60181;53.258;6.932;2022-07-23T06:26:56;102028.99;;;21.98;58.43
65659;BME280;60181;53.258;6.932;2022-07-23T06:31:24;102029.07;;;21.99;58.39
65659;BME280;60181;53.258;6.932;2022-07-23T06:35:52;102028.91;;;22.00;58.36
65659;BME280;60181;53.258;6.932;2022-07-23T06:40:20;102029.97;;;22.01;58.43
65659;BME280;60181;53.258;6.932;2022-07-23T06:44:48;102032.23;;;22.02;58.51
65659;BME280;60181;53.258;6.932;2022-07-23T06:49:16;102034.41;;;22.02;58.47
65659;BME280;60181;53.258;6.932;2022-07-23T06:53:44;102036.65;;;22.03;58.48
65659;BME280;60181;53.258;6.932;2022-07-23T06:58:12;102039.33;;;22.03;58.54
65659;BME280;60181;53.258;6.932;2022-07-23T07:02:40;102042.25;;;22.04;58.59
65659;BME280;60181;53.258;6.932;2022-07-23T07:07:08;102044.90;;;22.04;58.56
65659;BME280;60181;53.258;6.932;2022-07-23T07:11:36;102046.66;;;22.05;58.49
65659;BME280;60181;53.258;6.932;2022-07-23T07:16:04;102049.74;;;22.06;58.47
65659;BME280;60181;53.258;6.932;2022-07-23T07:20:32;102053.17;;;22.07;58.46
65659;BME280;60181;53.258;6.932;2022-07-23T07:25:00;102058.09;;;22.07;58.57
65659;BME280;60181;53.258;6.932;2022-07-23T07:29:28;102062.19;;;22.07;58.63
65659;BME280;60181;53.258;6.932;2022-07-23T07:33:56;102065.94;;;22.07;58.62
65659;BME280;60181;53.258;6.932;2022-07-23T07:38:24;102070.12;;;22.07;58.66
65659;BME280;60181;53.258;6.932;2022-07-23T07:42:53;102073.60;;;22.06;58.71
65659;BME280;60181;53.258;6.932;2022-07-23T07:47:20;102077.70;;;22.06;58.70
65659;BME280;60181;53.258;6.932;2022-07-23T07:51:48;102082.30;;;22.06;58.72
65659;BME280;60181;53.258;6.932;2022-07-23T07:56:16;102086.05;;;22.05;58.64
65659;BME280;60181;53.258;6.932;2022-07-23T08:00:44;102089.89;;;22.05;58.67
65659;BME280;60181;53.258;6.932;2022-07-23T08:05:12;102093.97;;;22.06;58.59
65659;BME280;60181;53.258;6.932;2022-07-23T08:09:40;102098.47;;;22.07;58.45
65659;BME280;60181;53.258;6.932;2022-07-23T08:14:08;102101.90;;;22.09;58.37
65659;BME280;60181;53.258;6.932;2022-07-23T08:18:36;102102.97;;;22.13;57.68
65659;BME280;60181;53.258;6.932;2022-07-23T08:23:05;102102.66;;;22.19;57.24
65659;BME280;60181;53.258;6.932;2022-07-23T08:27:32;102103.34;;;22.24;57.42
65659;BME280;60181;53.258;6.932;2022-07-23T08:32:00;102104.08;;;22.27;57.89
65659;BME280;60181;53.258;6.932;2022-07-23T08:36:28;102104.64;;;22.27;57.92
65659;BME280;60181;53.258;6.932;2022-07-23T08:40:56;102104.99;;;22.27;58.12
65659;BME280;60181;53.258;6.932;2022-07-23T08:45:25;102106.08;;;22.27;58.23
65659;BME280;60181;53.258;6.932;2022-07-23T08:49:52;102105.41;;;22.27;58.05
65659;BME280;60181;53.258;6.932;2022-07-23T08:54:21;102105.08;;;22.30;57.35
65659;BME280;60181;53.258;6.932;2022-07-23T08:58:48;102104.16;;;22.33;57.50
65659;BME280;60181;53.258;6.932;2022-07-23T09:03:23;102103.74;;;22.33;57.95
65659;BME280;60181;53.258;6.932;2022-07-23T09:12:12;102105.06;;;22.38;57.33
65659;BME280;60181;53.258;6.932;2022-07-23T09:16:40;102106.23;;;22.39;57.69
65659;BME280;60181;53.258;6.932;2022-07-23T09:21:12;102106.75;;;22.39;57.51
65659;BME280;60181;53.258;6.932;2022-07-23T09:25:36;102107.75;;;22.40;57.38
65659;BME280;60181;53.258;6.932;2022-07-23T09:30:05;102108.92;;;22.40;57.60
65659;BME280;60181;53.258;6.932;2022-07-23T09:34:32;102109.81;;;22.40;57.53
65659;BME280;60181;53.258;6.932;2022-07-23T09:39:00;102110.58;;;22.40;57.46
65659;BME280;60181;53.258;6.932;2022-07-23T09:43:28;102111.83;;;22.39;57.56
65659;BME280;60181;53.258;6.932;2022-07-23T09:48:14;102112.59;;;22.39;57.73
65659;BME280;60181;53.258;6.932;2022-07-23T09:52:29;102115.09;;;22.39;57.40
65659;BME280;60181;53.258;6.932;2022-07-23T09:56:52;102117.02;;;22.39;57.61
65659;BME280;60181;53.258;6.932;2022-07-23T10:01:20;102117.35;;;22.39;57.30
65659;BME280;60181;53.258;6.932;2022-07-23T10:05:48;102117.44;;;22.40;57.13
65659;BME280;60181;53.258;6.932;2022-07-23T10:10:16;102117.66;;;22.41;57.13
65659;BME280;60181;53.258;6.932;2022-07-23T10:14:44;102119.14;;;22.42;57.02
65659;BME280;60181;53.258;6.932;2022-07-23T10:19:12;102120.72;;;22.43;56.99
65659;BME280;60181;53.258;6.932;2022-07-23T10:23:42;102120.78;;;22.44;57.05
65659;BME280;60181;53.258;6.932;2022-07-23T10:32:53;102124.72;;;22.44;57.34
65659;BME280;60181;53.258;6.932;2022-07-23T10:37:11;102126.56;;;22.43;57.35
65659;BME280;60181;53.258;6.932;2022-07-23T10:41:36;102128.46;;;22.43;57.32
65659;BME280;60181;53.258;6.932;2022-07-23T10:50:29;102131.57;;;22.42;57.40
65659;BME280;60181;53.258;6.932;2022-07-23T10:55:26;102135.75;;;22.42;57.29
65659;BME280;60181;53.258;6.932;2022-07-23T10:59:24;102139.75;;;22.42;57.14
65659;BME280;60181;53.258;6.932;2022-07-23T11:03:58;102142.83;;;22.43;57.10
65659;BME280;60181;53.258;6.932;2022-07-23T11:08:20;102144.67;;;22.43;57.02
65659;BME280;60181;53.258;6.932;2022-07-23T11:12:48;102146.25;;;22.43;57.15
65659;BME280;60181;53.258;6.932;2022-07-23T11:17:19;102147.33;;;22.43;57.00
65659;BME280;60181;53.258;6.932;2022-07-23T11:21:44;102147.01;;;22.44;56.98
65659;BME280;60181;53.258;6.932;2022-07-23T11:26:28;102148.00;;;22.44;57.03
65659;BME280;60181;53.258;6.932;2022-07-23T11:30:41;102147.50;;;22.44;57.09
65659;BME280;60181;53.258;6.932;2022-07-23T11:35:24;102146.75;;;22.44;57.08
65659;BME280;60181;53.258;6.932;2022-07-23T11:39:36;102148.92;;;22.44;57.15
65659;BME280;60181;53.258;6.932;2022-07-23T11:44:04;102149.10;;;22.43;57.09
65659;BME280;60181;53.258;6.932;2022-07-23T11:48:32;102149.94;;;22.43;57.05
65659;BME280;60181;53.258;6.932;2022-07-23T11:53:00;102150.68;;;22.44;57.04
65659;BME280;60181;53.258;6.932;2022-07-23T11:57:29;102152.42;;;22.44;57.05
65659;BME280;60181;53.258;6.932;2022-07-23T12:02:00;102153.61;;;22.45;57.13
65659;BME280;60181;53.258;6.932;2022-07-23T12:06:24;102154.60;;;22.45;57.11
65659;BME280;60181;53.258;6.932;2022-07-23T12:10:52;102156.68;;;22.45;57.22
65659;BME280;60181;53.258;6.932;2022-07-23T12:15:21;102159.30;;;22.46;57.35
65659;BME280;60181;53.258;6.932;2022-07-23T12:19:48;102160.30;;;22.46;57.23
65659;BME280;60181;53.258;6.932;2022-07-23T12:24:16;102162.97;;;22.46;57.20
65659;BME280;60181;53.258;6.932;2022-07-23T12:28:44;102165.64;;;22.46;57.19
65659;BME280;60181;53.258;6.932;2022-07-23T12:33:13;102168.48;;;22.46;57.27
65659;BME280;60181;53.258;6.932;2022-07-23T12:37:44;102168.53;;;22.45;57.27
65659;BME280;60181;53.258;6.932;2022-07-23T12:42:11;102169.53;;;22.45;57.27
65659;BME280;60181;53.258;6.932;2022-07-23T12:46:36;102169.98;;;22.46;57.36
65659;BME280;60181;53.258;6.932;2022-07-23T12:51:07;102170.39;;;22.46;57.36
65659;BME280;60181;53.258;6.932;2022-07-23T12:55:32;102169.62;;;22.46;57.45
65659;BME280;60181;53.258;6.932;2022-07-23T13:00:09;102170.20;;;22.46;57.56
65659;BME280;60181;53.258;6.932;2022-07-23T13:04:28;102169.95;;;22.47;57.65
65659;BME280;60181;53.258;6.932;2022-07-23T13:08:56;102170.45;;;22.47;57.71
65659;BME280;60181;53.258;6.932;2022-07-23T13:13:25;102170.29;;;22.46;57.73
65659;BME280;60181;53.258;6.932;2022-07-23T13:17:52;102171.89;;;22.46;57.69
65659;BME280;60181;53.258;6.932;2022-07-23T13:22:20;102173.49;;;22.46;57.67
65659;BME280;60181;53.258;6.932;2022-07-23T13:26:48;102174.30;;;22.45;57.67
65659;BME280;60181;53.258;6.932;2022-07-23T13:31:16;102175.64;;;22.45;57.62
65659;BME280;60181;53.258;6.932;2022-07-23T13:35:44;102175.56;;;22.45;57.60
65659;BME280;60181;53.258;6.932;2022-07-23T13:40:12;102175.47;;;22.45;57.60
65659;BME280;60181;53.258;6.932;2022-07-23T13:44:40;102173.72;;;22.45;57.77
65659;BME280;60181;53.258;6.932;2022-07-23T13:49:08;102172.89;;;22.45;57.80
65659;BME280;60181;53.258;6.932;2022-07-23T13:53:36;102171.37;;;22.45;57.69
65659;BME280;60181;53.258;6.932;2022-07-23T13:58:04;102168.87;;;22.45;57.83
65659;BME280;60181;53.258;6.932;2022-07-23T14:02:32;102167.03;;;22.45;57.87
65659;BME280;60181;53.258;6.932;2022-07-23T14:07:00;102165.70;;;22.45;57.88
65659;BME280;60181;53.258;6.932;2022-07-23T14:11:28;102164.04;;;22.45;57.95
65659;BME280;60181;53.258;6.932;2022-07-23T14:15:56;102162.11;;;22.44;57.96
65659;BME280;60181;53.258;6.932;2022-07-23T14:20:24;102159.86;;;22.44;57.96
65659;BME280;60181;53.258;6.932;2022-07-23T14:24:52;102159.36;;;22.44;58.00
65659;BME280;60181;53.258;6.932;2022-07-23T14:29:20;102157.93;;;22.44;57.98
65659;BME280;60181;53.258;6.932;2022-07-23T14:33:48;102157.10;;;22.44;58.02
65659;BME280;60181;53.258;6.932;2022-07-23T14:38:16;102157.26;;;22.44;58.04
65659;BME280;60181;53.258;6.932;2022-07-23T14:42:44;102158.77;;;22.44;58.06
65659;BME280;60181;53.258;6.932;2022-07-23T14:47:12;102159.80;;;22.45;57.99
65659;BME280;60181;53.258;6.932;2022-07-23T14:51:40;102159.61;;;22.45;57.97
65659;BME280;60181;53.258;6.932;2022-07-23T14:56:07;102158.45;;;22.46;58.00
65659;BME280;60181;53.258;6.932;2022-07-23T15:00:36;102158.20;;;22.46;58.02
65659;BME280;60181;53.258;6.932;2022-07-23T15:05:04;102157.85;;;22.46;58.03
65659;BME280;60181;53.258;6.932;2022-07-23T15:09:31;102158.93;;;22.47;58.11
65659;BME280;60181;53.258;6.932;2022-07-23T15:14:00;102160.60;;;22.47;58.12
65659;BME280;60181;53.258;6.932;2022-07-23T15:18:27;102162.27;;;22.47;58.13
65659;BME280;60181;53.258;6.932;2022-07-23T15:22:55;102163.78;;;22.47;58.17
65659;BME280;60181;53.258;6.932;2022-07-23T15:27:23;102164.43;;;22.47;58.10
65659;BME280;60181;53.258;6.932;2022-07-23T15:31:51;102164.87;;;22.47;58.03
65659;BME280;60181;53.258;6.932;2022-07-23T15:36:20;102164.22;;;22.48;58.08
65659;BME280;60181;53.258;6.932;2022-07-23T15:40:47;102164.20;;;22.48;58.07
65659;BME280;60181;53.258;6.932;2022-07-23T15:45:16;102163.96;;;22.49;58.09
65659;BME280;60181;53.258;6.932;2022-07-23T15:49:44;102163.03;;;22.49;58.16
65659;BME280;60181;53.258;6.932;2022-07-23T15:54:11;102162.70;;;22.49;58.21
65659;BME280;60181;53.258;6.932;2022-07-23T15:58:39;102161.78;;;22.50;58.24
65659;BME280;60181;53.258;6.932;2022-07-23T16:03:07;102161.36;;;22.49;58.32
65659;BME280;60181;53.258;6.932;2022-07-23T16:07:37;102160.62;;;22.49;58.34
65659;BME280;60181;53.258;6.932;2022-07-23T16:12:04;102158.78;;;22.49;58.33
65659;BME280;60181;53.258;6.932;2022-07-23T16:16:31;102158.03;;;22.49;58.33
65659;BME280;60181;53.258;6.932;2022-07-23T16:20:59;102155.51;;;22.50;58.34
65659;BME280;60181;53.258;6.932;2022-07-23T16:25:27;102153.61;;;22.50;58.42
65659;BME280;60181;53.258;6.932;2022-07-23T16:29:55;102151.01;;;22.50;58.45
65659;BME280;60181;53.258;6.932;2022-07-23T16:34:23;102147.85;;;22.50;58.51
65659;BME280;60181;53.258;6.932;2022-07-23T16:38:51;102145.58;;;22.51;58.59
65659;BME280;60181;53.258;6.932;2022-07-23T16:43:19;102144.75;;;22.51;58.67
65659;BME280;60181;53.258;6.932;2022-07-23T16:47:47;102144.16;;;22.51;58.70
65659;BME280;60181;53.258;6.932;2022-07-23T16:52:15;102143.66;;;22.51;58.76
65659;BME280;60181;53.258;6.932;2022-07-23T16:56:43;102142.60;;;22.51;58.84
65659;BME280;60181;53.258;6.932;2022-07-23T17:01:11;102140.92;;;22.51;58.89
65659;BME280;60181;53.258;6.932;2022-07-23T17:05:39;102141.74;;;22.52;59.08
65659;BME280;60181;53.258;6.932;2022-07-23T17:10:08;102142.32;;;22.52;59.06
65659;BME280;60181;53.258;6.932;2022-07-23T17:14:35;102143.93;;;22.52;59.05
65659;BME280;60181;53.258;6.932;2022-07-23T17:19:03;102144.09;;;22.52;59.05
65659;BME280;60181;53.258;6.932;2022-07-23T17:23:31;102145.51;;;22.53;59.14
65659;BME280;60181;53.258;6.932;2022-07-23T17:27:59;102146.92;;;22.53;59.23
65659;BME280;60181;53.258;6.932;2022-07-23T17:32:27;102147.33;;;22.53;59.31
65659;BME280;60181;53.258;6.932;2022-07-23T17:36:55;102148.74;;;22.53;59.34
65659;BME280;60181;53.258;6.932;2022-07-23T17:41:23;102149.85;;;22.54;59.35
65659;BME280;60181;53.258;6.932;2022-07-23T17:45:51;102151.76;;;22.54;59.48
65659;BME280;60181;53.258;6.932;2022-07-23T17:50:19;102151.93;;;22.54;59.44
65659;BME280;60181;53.258;6.932;2022-07-23T17:54:47;102152.09;;;22.54;59.52
65659;BME280;60181;53.258;6.932;2022-07-23T17:59:15;102152.67;;;22.54;59.54
65659;BME280;60181;53.258;6.932;2022-07-23T18:03:43;102154.02;;;22.54;59.56
65659;BME280;60181;53.258;6.932;2022-07-23T18:08:11;102153.44;;;22.54;59.55
65659;BME280;60181;53.258;6.932;2022-07-23T18:12:39;102152.60;;;22.54;59.57
65659;BME280;60181;53.258;6.932;2022-07-23T18:17:07;102152.60;;;22.54;59.65
65659;BME280;60181;53.258;6.932;2022-07-23T18:21:36;102153.10;;;22.54;59.58
65659;BME280;60181;53.258;6.932;2022-07-23T18:26:03;102154.03;;;22.54;59.63
65659;BME280;60181;53.258;6.932;2022-07-23T18:30:31;102155.92;;;22.53;59.57
65659;BME280;60181;53.258;6.932;2022-07-23T18:34:59;102157.01;;;22.53;59.60
65659;BME280;60181;53.258;6.932;2022-07-23T18:39:27;102156.53;;;22.53;59.66
65659;BME280;60181;53.258;6.932;2022-07-23T18:43:55;102156.13;;;22.52;59.64
65659;BME280;60181;53.258;6.932;2022-07-23T18:48:23;102155.19;;;22.52;59.67
65659;BME280;60181;53.258;6.932;2022-07-23T18:52:51;102154.85;;;22.51;59.66
65659;BME280;60181;53.258;6.932;2022-07-23T18:57:19;102155.52;;;22.50;59.70
65659;BME280;60181;53.258;6.932;2022-07-23T19:01:47;102156.34;;;22.50;59.72
65659;BME280;60181;53.258;6.932;2022-07-23T19:06:15;102156.87;;;22.49;59.76
65659;BME280;60181;53.258;6.932;2022-07-23T19:10:43;102158.11;;;22.48;59.80
65659;BME280;60181;53.258;6.932;2022-07-23T19:15:11;102159.28;;;22.47;59.83
65659;BME280;60181;53.258;6.932;2022-07-23T19:19:39;102159.03;;;22.46;59.92
65659;BME280;60181;53.258;6.932;2022-07-23T19:24:07;102159.45;;;22.45;59.96
65659;BME280;60181;53.258;6.932;2022-07-23T19:28:35;102158.60;;;22.43;60.03
65659;BME280;60181;53.258;6.932;2022-07-23T19:33:03;102158.52;;;22.42;60.06
65659;BME280;60181;53.258;6.932;2022-07-23T19:37:31;102160.42;;;22.40;60.07
65659;BME280;60181;53.258;6.932;2022-07-23T19:41:59;102162.51;;;22.39;60.08
65659;BME280;60181;53.258;6.932;2022-07-23T19:46:27;102164.59;;;22.38;60.10
65659;BME280;60181;53.258;6.932;2022-07-23T19:50:55;102164.76;;;22.37;60.10
65659;BME280;60181;53.258;6.932;2022-07-23T19:55:23;102164.26;;;22.36;60.10
65659;BME280;60181;53.258;6.932;2022-07-23T19:59:51;102164.25;;;22.35;60.12
65659;BME280;60181;53.258;6.932;2022-07-23T20:04:19;102164.17;;;22.34;60.13
65659;BME280;60181;53.258;6.932;2022-07-23T20:08:47;102163.23;;;22.33;60.12
65659;BME280;60181;53.258;6.932;2022-07-23T20:13:15;102163.50;;;22.32;60.14
65659;BME280;60181;53.258;6.932;2022-07-23T20:17:43;102162.92;;;22.32;60.15
65659;BME280;60181;53.258;6.932;2022-07-23T20:22:11;102162.24;;;22.31;60.17
65659;BME280;60181;53.258;6.932;2022-07-23T20:26:39;102162.31;;;22.30;60.18
65659;BME280;60181;53.258;6.932;2022-07-23T20:31:07;102162.75;;;22.29;60.19
65659;BME280;60181;53.258;6.932;2022-07-23T20:35:35;102162.25;;;22.28;60.21
65659;BME280;60181;53.258;6.932;2022-07-23T20:40:03;102162.33;;;22.27;60.19
65659;BME280;60181;53.258;6.932;2022-07-23T20:44:31;102161.39;;;22.26;60.20
65659;BME280;60181;53.258;6.932;2022-07-23T20:48:59;102158.83;;;22.26;60.19
65659;BME280;60181;53.258;6.932;2022-07-23T20:53:27;102156.40;;;22.25;60.21
65659;BME280;60181;53.258;6.932;2022-07-23T20:57:55;102155.75;;;22.24;60.20
65659;BME280;60181;53.258;6.932;2022-07-23T21:02:23;102155.31;;;22.24;60.20
65659;BME280;60181;53.258;6.932;2022-07-23T21:06:51;102155.63;;;22.23;60.18
65659;BME280;60181;53.258;6.932;2022-07-23T21:11:19;102156.48;;;22.23;60.18
65659;BME280;60181;53.258;6.932;2022-07-23T21:15:47;102157.06;;;22.22;60.16
65659;BME280;60181;53.258;6.932;2022-07-23T21:20:15;102155.66;;;22.21;60.15
65659;BME280;60181;53.258;6.932;2022-07-23T21:24:43;102153.89;;;22.20;60.12
65659;BME280;60181;53.258;6.932;2022-07-23T21:29:11;102152.63;;;22.19;60.10
65659;BME280;60181;53.258;6.932;2022-07-23T21:33:39;102151.70;;;22.19;60.11
65659;BME280;60181;53.258;6.932;2022-07-23T21:38:07;102151.54;;;22.18;60.13
65659;BME280;60181;53.258;6.932;2022-07-23T21:42:35;102150.45;;;22.17;60.11
65659;BME280;60181;53.258;6.932;2022-07-23T21:47:03;102149.30;;;22.17;60.11
65659;BME280;60181;53.258;6.932;2022-07-23T21:51:31;102148.28;;;22.16;60.11
65659;BME280;60181;53.258;6.932;2022-07-23T21:55:59;102148.88;;;22.16;60.12
65659;BME280;60181;53.258;6.932;2022-07-23T22:00:28;102149.55;;;22.16;60.08
65659;BME280;60181;53.258;6.932;2022-07-23T22:04:55;102149.20;;;22.15;60.07
65659;BME280;60181;53.258;6.932;2022-07-23T22:09:23;102149.39;;;22.15;60.06
65659;BME280;60181;53.258;6.932;2022-07-23T22:13:51;102148.36;;;22.14;60.05
65659;BME280;60181;53.258;6.932;2022-07-23T22:18:19;102146.55;;;22.13;60.03
65659;BME280;60181;53.258;6.932;2022-07-23T22:22:48;102145.28;;;22.13;60.03
65659;BME280;60181;53.258;6.932;2022-07-23T22:27:15;102143.96;;;22.12;60.03
65659;BME280;60181;53.258;6.932;2022-07-23T22:31:43;102142.28;;;22.12;60.02
65659;BME280;60181;53.258;6.932;2022-07-23T22:36:11;102140.53;;;22.11;60.01
65659;BME280;60181;53.258;6.932;2022-07-23T22:40:39;102137.44;;;22.11;59.99
65659;BME280;60181;53.258;6.932;2022-07-23T22:45:07;102135.94;;;22.10;60.00
65659;BME280;60181;53.258;6.932;2022-07-23T22:49:35;102134.42;;;22.10;59.99
65659;BME280;60181;53.258;6.932;2022-07-23T22:54:03;102132.51;;;22.09;59.99
65659;BME280;60181;53.258;6.932;2022-07-23T22:58:31;102128.85;;;22.08;59.98
65659;BME280;60181;53.258;6.932;2022-07-23T23:02:59;102125.69;;;22.08;59.97
65659;BME280;60181;53.258;6.932;2022-07-23T23:07:27;102122.92;;;22.07;59.94
65659;BME280;60181;53.258;6.932;2022-07-23T23:11:55;102120.76;;;22.07;59.97
65659;BME280;60181;53.258;6.932;2022-07-23T23:16:23;102118.08;;;22.06;59.92
65659;BME280;60181;53.258;6.932;2022-07-23T23:20:51;102116.60;;;22.05;59.94
65659;BME280;60181;53.258;6.932;2022-07-23T23:25:19;102115.23;;;22.05;59.92
65659;BME280;60181;53.258;6.932;2022-07-23T23:29:47;102114.58;;;22.04;59.89
65659;BME280;60181;53.258;6.932;2022-07-23T23:34:15;102113.23;;;22.04;59.91